createdAt,value
2019-05-21T00:01:19.932Z,7.80
2019-05-21T00:06:23.879Z,6.40
2019-05-21T00:11:27.562Z,7.37
2019-05-21T00:16:31.500Z,7.53
2019-05-21T00:21:35.452Z,7.00
2019-05-21T00:26:39.102Z,7.27
2019-05-21T00:32:18.515Z,9.93
2019-05-21T00:37:58.065Z,6.37
2019-05-21T00:43:01.825Z,6.83
2019-05-21T00:48:05.935Z,9.50
2019-05-21T00:53:09.679Z,8.03
2019-05-21T00:58:13.615Z,10.03
2019-05-21T01:03:17.322Z,7.63
2019-05-21T01:08:20.996Z,7.73
2019-05-21T01:13:24.676Z,8.57
2019-05-21T01:18:28.506Z,8.93
2019-05-21T01:23:32.191Z,8.33
2019-05-21T01:28:35.972Z,7.33
2019-05-21T01:33:39.702Z,7.73
2019-05-21T01:38:43.604Z,7.83
2019-05-21T01:43:47.571Z,8.33
2019-05-21T01:48:51.595Z,7.83
2019-05-21T01:53:55.291Z,10.03
2019-05-21T01:58:59.101Z,8.90
2019-05-21T02:04:02.841Z,9.27
2019-05-21T02:09:08.150Z,8.43
2019-05-21T02:14:12.047Z,7.53
2019-05-21T02:19:15.765Z,11.43
2019-05-21T02:24:19.463Z,9.73
2019-05-21T02:29:23.124Z,9.40
2019-05-21T02:34:26.869Z,9.20
2019-05-21T02:39:30.535Z,11.40
2019-05-21T02:44:34.210Z,13.43
2019-05-21T02:49:38.114Z,12.47
2019-05-21T02:54:42.177Z,10.33
2019-05-21T02:59:47.996Z,11.03
2019-05-21T03:04:52.141Z,11.43
2019-05-21T03:09:55.803Z,10.77
2019-05-21T03:14:59.575Z,10.33
2019-05-21T03:20:04.262Z,10.67
2019-05-21T03:25:08.381Z,11.07
2019-05-21T03:30:12.813Z,11.07
2019-05-21T03:35:17.650Z,13.47
2019-05-21T03:40:21.328Z,12.80
2019-05-21T03:45:25.067Z,11.47
2019-05-21T03:50:28.761Z,13.63
2019-05-21T03:55:32.420Z,15.73
2019-05-21T04:00:36.090Z,14.80
2019-05-21T04:05:39.761Z,13.20
2019-05-21T04:10:43.664Z,12.27
2019-05-21T04:16:09.299Z,10.63
2019-05-21T04:21:12.985Z,14.03
2019-05-21T04:26:16.704Z,11.27
2019-05-21T04:31:20.347Z,11.60
2019-05-21T04:36:24.284Z,15.93
2019-05-21T04:41:28.063Z,16.20
2019-05-21T04:46:31.801Z,18.33
2019-05-21T04:51:35.701Z,17.67
2019-05-21T04:56:39.409Z,19.37
2019-05-21T05:01:43.258Z,18.60
2019-05-21T05:06:46.958Z,33.90
2019-05-21T05:11:50.699Z,15.83
2019-05-21T05:16:54.603Z,20.27
2019-05-21T05:21:58.369Z,16.87
2019-05-21T05:27:02.083Z,15.43
2019-05-21T05:32:05.754Z,12.93
2019-05-21T05:37:09.467Z,10.83
2019-05-21T05:42:13.244Z,12.50
2019-05-21T05:47:17.039Z,9.37
2019-05-21T05:52:21.001Z,10.50
2019-05-21T05:57:24.801Z,9.30
2019-05-21T06:02:28.563Z,10.90
2019-05-21T06:07:32.542Z,7.83
2019-05-21T06:12:36.325Z,10.17
2019-05-21T06:17:40.044Z,7.37
2019-05-21T06:22:43.827Z,8.13
2019-05-21T06:27:47.745Z,7.90
2019-05-21T06:32:51.702Z,6.07
2019-05-21T06:37:55.517Z,4.97
2019-05-21T06:42:59.418Z,6.70
2019-05-21T06:48:03.139Z,5.47
2019-05-21T06:53:06.943Z,4.23
2019-05-21T06:58:10.610Z,5.57
2019-05-21T07:03:14.350Z,4.33
2019-05-21T07:08:33.544Z,4.57
2019-05-21T07:13:23.693Z,3.63
2019-05-21T07:18:27.383Z,4.40
2019-05-21T07:23:31.310Z,3.03
2019-05-21T07:28:35.079Z,7.23
2019-05-21T07:33:38.770Z,3.37
2019-05-21T07:38:53.312Z,2.90
2019-05-21T07:43:59.245Z,3.57
2019-05-21T07:49:03.587Z,3.20
2019-05-21T07:54:07.444Z,3.10
2019-05-21T07:59:11.233Z,3.77
2019-05-21T08:04:15.279Z,3.47
2019-05-21T08:09:19.449Z,3.40
2019-05-21T08:14:23.222Z,3.83
2019-05-21T08:19:31.079Z,3.03
2019-05-21T08:24:33.683Z,2.20
2019-05-21T08:29:37.433Z,2.53
2019-05-21T08:34:41.124Z,2.93
2019-05-21T08:39:44.862Z,2.23
2019-05-21T08:44:48.830Z,1.50
2019-05-21T08:49:52.507Z,1.25
2019-05-21T08:54:56.755Z,1.90
2019-05-21T09:00:00.469Z,1.30
2019-05-21T09:05:04.651Z,1.20
2019-05-21T09:10:09.547Z,1.35
2019-05-21T09:15:16.041Z,1.50
2019-05-21T09:20:20.086Z,1.47
2019-05-21T09:25:24.072Z,1.40
2019-05-21T09:30:27.813Z,2.20
2019-05-21T09:35:31.846Z,2.55
2019-05-21T09:40:35.799Z,2.30
2019-05-21T09:45:39.592Z,1.52
2019-05-21T09:50:43.438Z,1.27
2019-05-21T09:55:47.601Z,1.17
2019-05-21T10:01:18.240Z,1.05
2019-05-21T10:06:23.392Z,2.45
2019-05-21T10:11:30.127Z,1.85
2019-05-21T10:36:16.040Z,0.62
2019-05-21T10:54:16.011Z,0.60
2019-05-21T11:11:41.989Z,1.45
2019-05-21T12:10:39.745Z,1.20
2019-05-21T12:16:21.680Z,0.80
2019-05-21T12:21:46.962Z,1.12
2019-05-21T12:27:21.850Z,0.90
2019-05-21T12:32:36.433Z,1.20
2019-05-21T12:38:33.154Z,1.67
2019-05-21T12:44:13.672Z,0.90
2019-05-21T13:01:12.659Z,0.70
2019-05-21T13:06:54.964Z,0.90
2019-05-21T13:12:00.101Z,1.30
2019-05-21T13:17:50.372Z,2.45
2019-05-21T13:23:27.024Z,1.57
2019-05-21T13:28:58.957Z,2.80
2019-05-21T13:34:10.927Z,2.10
2019-05-21T13:39:14.888Z,2.12
2019-05-21T13:44:18.582Z,1.27
2019-05-21T13:49:22.326Z,0.85
2019-05-21T13:54:26.107Z,0.88
2019-05-21T13:59:30.125Z,1.07
2019-05-21T14:04:34.052Z,1.30
2019-05-21T14:09:37.934Z,0.85
2019-05-21T14:14:41.635Z,4.62
2019-05-21T14:19:45.390Z,0.85
2019-05-21T14:24:49.101Z,1.07
2019-05-21T14:29:52.857Z,1.10
2019-05-21T14:35:01.141Z,1.55
2019-05-21T14:40:02.154Z,1.12
2019-05-21T14:45:06.245Z,1.17
2019-05-21T14:50:10.576Z,1.47
2019-05-21T14:55:14.550Z,1.72
2019-05-21T15:00:27.571Z,3.87
2019-05-21T15:05:31.492Z,1.72
2019-05-21T15:10:47.834Z,4.62
2019-05-21T15:15:41.045Z,1.70
2019-05-21T15:21:02.777Z,1.67
2019-05-21T15:26:06.583Z,1.40
2019-05-21T15:31:10.300Z,3.92
2019-05-21T15:36:14.338Z,1.22
2019-05-21T15:41:18.045Z,1.22
2019-05-21T15:46:21.736Z,1.12
2019-05-21T15:51:25.398Z,1.20
2019-05-21T15:56:29.292Z,1.98
2019-05-21T16:01:33.209Z,1.25
2019-05-21T16:06:36.951Z,4.00
2019-05-21T16:11:40.641Z,2.15
2019-05-21T16:16:44.688Z,1.45
2019-05-21T16:21:48.375Z,1.90
2019-05-21T16:26:52.382Z,1.55
2019-05-21T16:31:56.081Z,1.95
2019-05-21T16:36:59.907Z,1.20
2019-05-21T16:42:03.814Z,1.55
2019-05-21T16:47:07.517Z,1.80
2019-05-21T16:52:11.654Z,1.87
2019-05-21T16:57:15.772Z,1.82
2019-05-21T17:02:19.485Z,1.70
2019-05-21T17:07:23.394Z,2.65
2019-05-21T17:12:27.242Z,3.85
2019-05-21T17:17:30.981Z,1.57
2019-05-21T17:22:34.947Z,2.60
2019-05-21T17:27:38.764Z,2.92
2019-05-21T17:32:42.738Z,2.65
2019-05-21T17:37:46.670Z,1.90
2019-05-21T17:42:50.557Z,1.65
2019-05-21T17:47:54.316Z,1.25
2019-05-21T17:52:58.354Z,1.27
2019-05-21T17:58:02.147Z,1.30
2019-05-21T18:03:06.296Z,1.32
2019-05-21T18:08:10.340Z,1.77
2019-05-21T18:13:14.441Z,2.00
2019-05-21T18:18:18.165Z,1.50
2019-05-21T18:23:22.052Z,1.62
2019-05-21T18:28:25.901Z,3.12
2019-05-21T18:33:29.569Z,1.40
2019-05-21T18:38:33.578Z,1.62
2019-05-21T18:43:37.625Z,2.58
2019-05-21T18:48:41.395Z,2.17
2019-05-21T18:53:48.049Z,3.60
2019-05-21T18:58:52.617Z,2.15
2019-05-21T19:03:56.359Z,2.00
2019-05-21T19:09:00.040Z,2.90
2019-05-21T19:14:03.993Z,2.35
2019-05-21T19:19:07.885Z,2.55
2019-05-21T19:24:11.762Z,1.50
2019-05-21T19:29:15.503Z,2.00
2019-05-21T19:34:19.196Z,2.42
2019-05-21T19:39:22.955Z,2.20
2019-05-21T19:44:26.949Z,3.75
2019-05-21T19:49:30.731Z,2.62
2019-05-21T19:54:34.734Z,2.52
2019-05-21T19:59:38.498Z,4.80
2019-05-21T20:04:42.754Z,5.25
2019-05-21T20:09:48.506Z,6.30
2019-05-21T20:14:52.285Z,8.28
2019-05-21T20:19:56.492Z,9.10
2019-05-21T20:25:00.497Z,12.53
2019-05-21T20:30:12.662Z,13.10
2019-05-21T20:35:12.027Z,12.77
2019-05-21T20:40:16.605Z,14.83
2019-05-21T20:45:21.450Z,9.40
2019-05-21T20:50:26.179Z,9.77
2019-05-21T20:55:31.718Z,10.53
2019-05-21T21:00:46.543Z,8.77
2019-05-21T21:05:50.616Z,10.97
2019-05-21T21:10:54.310Z,11.20
2019-05-21T21:15:58.369Z,13.13
2019-05-21T21:21:02.259Z,14.33
2019-05-21T21:26:06.432Z,11.00
2019-05-21T21:31:10.340Z,13.77
2019-05-21T21:36:14.236Z,14.53
2019-05-21T21:41:18.743Z,14.23
2019-05-21T21:46:22.783Z,18.87
2019-05-21T21:51:26.580Z,17.80
2019-05-21T21:56:30.374Z,18.20
2019-05-21T22:01:43.790Z,16.17
2019-05-21T22:06:49.456Z,16.30
2019-05-21T22:11:53.787Z,17.90
2019-05-21T22:16:57.843Z,16.77
2019-05-21T22:22:01.802Z,24.43
2019-05-21T22:27:05.609Z,20.67
2019-05-21T22:32:09.468Z,18.77
2019-05-21T22:37:14.931Z,19.43
2019-05-21T22:42:19.294Z,25.43
2019-05-21T22:47:23.050Z,19.27
2019-05-21T22:52:26.741Z,22.43
2019-05-21T22:57:30.513Z,22.60
2019-05-21T23:02:36.569Z,21.57
2019-05-21T23:07:40.344Z,20.67
2019-05-21T23:12:44.770Z,20.70
2019-05-21T23:17:48.569Z,23.57
2019-05-21T23:22:54.302Z,24.10
2019-05-21T23:27:59.036Z,19.17
2019-05-21T23:33:03.782Z,21.37
2019-05-21T23:38:08.855Z,21.50
2019-05-21T23:43:13.446Z,21.20
2019-05-21T23:48:17.414Z,24.97
2019-05-21T23:53:21.084Z,23.27
2019-05-21T23:58:24.758Z,25.27
